createdAt,value
2023-05-10T00:00:29.368Z,7.30
2023-05-10T00:03:16.590Z,6.80
2023-05-10T00:05:48.424Z,7.40
2023-05-10T00:08:20.304Z,6.70
2023-05-10T00:10:54.334Z,6.40
2023-05-10T00:13:26.164Z,6.70
2023-05-10T00:15:57.954Z,7.20
2023-05-10T00:18:29.660Z,7.00
2023-05-10T00:21:01.593Z,6.60
2023-05-10T00:23:33.295Z,7.00
2023-05-10T00:26:05.391Z,7.00
2023-05-10T00:28:37.347Z,5.20
2023-05-10T00:31:09.022Z,6.80
2023-05-10T00:33:40.756Z,7.00
2023-05-10T00:36:12.636Z,6.50
2023-05-10T00:38:44.292Z,7.10
2023-05-10T00:41:16.664Z,7.70
2023-05-10T00:43:49.434Z,6.70
2023-05-10T00:46:22.464Z,7.20
2023-05-10T00:48:54.566Z,7.10
2023-05-10T00:51:26.953Z,7.40
2023-05-10T00:53:58.934Z,6.70
2023-05-10T00:56:30.870Z,6.60
2023-05-10T00:59:03.491Z,7.80
2023-05-10T01:01:35.553Z,7.30
2023-05-10T01:04:07.584Z,6.40
2023-05-10T01:06:39.265Z,7.20
2023-05-10T01:09:12.597Z,6.70
2023-05-10T01:11:44.663Z,7.30
2023-05-10T01:14:18.121Z,7.00
2023-05-10T01:16:51.598Z,7.30
2023-05-10T01:19:27.921Z,6.60
2023-05-10T01:22:09.159Z,6.60
2023-05-10T01:25:02.781Z,7.00
2023-05-10T01:28:16.896Z,6.90
2023-05-10T01:31:10.492Z,6.50
2023-05-10T01:33:48.868Z,6.80
2023-05-10T01:36:31.934Z,6.90
2023-05-10T01:39:11.249Z,6.50
2023-05-10T01:41:51.798Z,7.20
2023-05-10T01:44:31.565Z,7.40
2023-05-10T01:47:08.299Z,7.00
2023-05-10T01:49:46.003Z,7.00
2023-05-10T01:52:21.249Z,6.90
2023-05-10T01:54:58.022Z,7.20
2023-05-10T01:57:34.514Z,6.70
2023-05-10T02:00:09.138Z,6.90
2023-05-10T02:02:50.586Z,6.70
2023-05-10T02:05:24.847Z,7.30
2023-05-10T02:07:57.903Z,6.70
2023-05-10T02:10:30.891Z,7.10
2023-05-10T02:13:04.660Z,7.20
2023-05-10T02:15:38.867Z,6.80
2023-05-10T02:18:12.784Z,7.60
2023-05-10T02:20:45.910Z,6.90
2023-05-10T02:23:19.525Z,6.40
2023-05-10T02:25:53.671Z,7.00
2023-05-10T02:28:29.102Z,6.70
2023-05-10T02:31:01.106Z,7.20
2023-05-10T02:33:36.275Z,6.80
2023-05-10T02:36:09.797Z,6.90
2023-05-10T02:38:43.004Z,7.00
2023-05-10T02:41:15.958Z,6.90
2023-05-10T02:43:48.250Z,6.60
2023-05-10T02:46:20.512Z,7.70
2023-05-10T02:48:52.310Z,7.10
2023-05-10T02:51:30.217Z,7.10
2023-05-10T02:54:08.997Z,8.00
2023-05-10T02:56:47.833Z,6.90
2023-05-10T02:59:19.698Z,6.80
2023-05-10T03:01:51.481Z,7.20
2023-05-10T03:04:23.463Z,6.60
2023-05-10T03:06:56.092Z,7.60
2023-05-10T03:09:28.143Z,6.90
2023-05-10T03:12:10.210Z,6.60
2023-05-10T03:14:54.873Z,7.40
2023-05-10T03:17:38.319Z,6.90
2023-05-10T03:22:49.732Z,7.20
2023-05-10T03:25:23.095Z,7.60
2023-05-10T03:27:56.436Z,7.20
2023-05-10T03:30:30.403Z,7.60
2023-05-10T03:33:08.183Z,6.80
2023-05-10T03:35:42.983Z,7.40
2023-05-10T03:38:14.804Z,7.60
2023-05-10T03:40:46.512Z,5.50
2023-05-10T03:43:18.230Z,7.20
2023-05-10T03:45:50.056Z,7.40
2023-05-10T03:48:21.775Z,7.40
2023-05-10T03:50:53.578Z,7.00
2023-05-10T03:53:25.391Z,5.20
2023-05-10T03:55:57.331Z,7.80
2023-05-10T03:58:29.603Z,8.00
2023-05-10T04:01:01.769Z,7.70
2023-05-10T04:03:33.527Z,7.70
2023-05-10T04:06:06.311Z,8.20
2023-05-10T04:08:38.179Z,7.60
2023-05-10T04:11:10.662Z,7.40
2023-05-10T04:13:43.908Z,8.00
2023-05-10T04:16:15.788Z,7.20
2023-05-10T04:18:47.637Z,7.90
2023-05-10T04:21:19.658Z,8.00
2023-05-10T04:23:51.383Z,7.70
2023-05-10T04:26:23.057Z,7.70
2023-05-10T04:28:54.675Z,7.20
2023-05-10T04:31:27.035Z,7.20
2023-05-10T04:33:58.761Z,8.60
2023-05-10T04:36:30.443Z,7.50
2023-05-10T04:39:03.639Z,7.50
2023-05-10T04:41:35.581Z,7.50
2023-05-10T04:44:08.214Z,8.40
2023-05-10T04:46:40.540Z,9.40
2023-05-10T04:49:12.675Z,7.90
2023-05-10T04:51:44.372Z,7.80
2023-05-10T04:54:16.121Z,7.60
2023-05-10T04:56:48.410Z,7.00
2023-05-10T04:59:20.360Z,8.10
2023-05-10T05:01:52.068Z,7.80
2023-05-10T05:04:25.087Z,8.30
2023-05-10T05:06:56.881Z,8.40
2023-05-10T05:09:28.673Z,8.20
2023-05-10T05:12:01.023Z,7.70
2023-05-10T05:14:32.965Z,8.80
2023-05-10T05:17:04.857Z,8.00
2023-05-10T05:19:36.665Z,9.50
2023-05-10T05:22:10.062Z,7.30
2023-05-10T05:24:41.760Z,8.00
2023-05-10T05:27:13.491Z,5.80
2023-05-10T05:29:45.619Z,8.10
2023-05-10T05:32:17.347Z,6.20
2023-05-10T05:34:49.569Z,6.80
2023-05-10T05:37:22.307Z,7.20
2023-05-10T05:42:24.181Z,8.10
2023-05-10T05:44:56.314Z,7.80
2023-05-10T05:47:28.104Z,8.40
2023-05-10T05:49:59.839Z,7.60
2023-05-10T05:52:32.216Z,8.10
2023-05-10T05:55:04.633Z,7.60
2023-05-10T05:57:36.895Z,7.90
2023-05-10T06:02:47.125Z,8.00
2023-05-10T06:05:19.217Z,8.10
2023-05-10T06:07:50.953Z,7.30
2023-05-10T06:10:22.815Z,8.40
2023-05-10T06:12:55.089Z,7.20
2023-05-10T06:15:27.105Z,7.90
2023-05-10T06:17:58.820Z,7.40
2023-05-10T06:20:32.412Z,6.90
2023-05-10T06:23:04.229Z,8.20
2023-05-10T06:25:36.581Z,7.00
2023-05-10T06:28:08.605Z,8.70
2023-05-10T06:30:40.712Z,8.50
2023-05-10T06:33:12.511Z,7.80
2023-05-10T06:35:44.819Z,7.30
2023-05-10T06:38:16.982Z,7.70
2023-05-10T06:40:48.712Z,6.10
2023-05-10T06:43:20.811Z,8.10
2023-05-10T06:45:53.223Z,7.60
2023-05-10T06:48:25.237Z,8.20
2023-05-10T06:50:56.968Z,7.10
2023-05-10T06:53:28.838Z,8.50
2023-05-10T06:56:00.867Z,7.60
2023-05-10T06:58:34.553Z,6.50
2023-05-10T07:01:07.312Z,7.30
2023-05-10T07:03:39.214Z,7.70
2023-05-10T07:06:21.570Z,8.20
2023-05-10T07:08:58.086Z,6.60
2023-05-10T07:11:29.937Z,8.40
2023-05-10T07:14:01.681Z,5.00
2023-05-10T07:16:33.839Z,7.30
2023-05-10T07:19:06.265Z,7.20
2023-05-10T07:21:38.471Z,7.20
2023-05-10T07:24:10.443Z,8.00
2023-05-10T07:26:42.135Z,6.90
2023-05-10T07:29:13.872Z,7.00
2023-05-10T07:31:45.719Z,6.10
2023-05-10T07:34:17.549Z,6.80
2023-05-10T07:36:49.420Z,6.80
2023-05-10T07:39:27.282Z,6.00
2023-05-10T07:41:59.774Z,6.10
2023-05-10T07:44:31.414Z,6.80
2023-05-10T07:47:03.379Z,5.80
2023-05-10T07:49:35.139Z,6.10
2023-05-10T07:52:07.900Z,6.40
2023-05-10T07:57:10.717Z,6.20
2023-05-10T07:59:42.591Z,6.30
2023-05-10T08:02:14.425Z,5.70
2023-05-10T08:04:46.547Z,6.40
2023-05-10T08:07:18.742Z,6.60
2023-05-10T08:09:50.555Z,6.50
2023-05-10T08:12:22.664Z,6.00
2023-05-10T08:14:54.376Z,6.20
2023-05-10T08:17:26.426Z,6.20
2023-05-10T08:19:58.527Z,5.90
2023-05-10T08:22:30.315Z,5.40
2023-05-10T08:25:02.385Z,4.90
2023-05-10T08:27:36.272Z,5.90
2023-05-10T08:30:10.655Z,5.50
2023-05-10T08:32:42.650Z,5.00
2023-05-10T08:35:14.785Z,5.80
2023-05-10T08:37:46.769Z,6.50
2023-05-10T08:40:21.065Z,3.90
2023-05-10T08:43:00.948Z,5.70
2023-05-10T08:45:37.774Z,5.60
2023-05-10T08:48:11.722Z,5.30
2023-05-10T08:50:44.850Z,4.80
2023-05-10T08:53:18.383Z,5.70
2023-05-10T08:55:50.711Z,5.10
2023-05-10T08:58:22.886Z,4.00
2023-05-10T09:00:55.150Z,4.50
2023-05-10T09:03:27.584Z,3.60
2023-05-10T09:05:59.874Z,4.40
2023-05-10T09:08:32.121Z,4.30
2023-05-10T09:11:04.138Z,5.30
2023-05-10T09:13:37.426Z,4.60
2023-05-10T09:16:20.503Z,4.30
2023-05-10T09:18:54.054Z,4.40
2023-05-10T09:23:56.559Z,3.70
2023-05-10T09:26:28.728Z,3.70
2023-05-10T09:29:02.274Z,4.20
2023-05-10T09:31:53.455Z,3.60
2023-05-10T09:34:34.489Z,3.20
2023-05-10T09:37:06.936Z,3.10
2023-05-10T09:39:39.951Z,3.30
2023-05-10T09:42:13.296Z,3.20
2023-05-10T09:44:47.297Z,3.80
2023-05-10T09:47:22.034Z,3.70
2023-05-10T09:49:57.745Z,3.20
2023-05-10T09:52:30.050Z,3.40
2023-05-10T09:55:02.130Z,2.90
2023-05-10T09:57:35.268Z,3.50
2023-05-10T10:00:10.784Z,3.30
2023-05-10T10:02:58.363Z,3.30
2023-05-10T10:05:34.209Z,3.30
2023-05-10T10:08:07.610Z,4.30
2023-05-10T10:10:39.734Z,3.40
2023-05-10T10:13:12.073Z,3.50
2023-05-10T10:15:46.887Z,3.40
2023-05-10T10:18:19.909Z,3.40
2023-05-10T10:20:51.816Z,2.90
2023-05-10T10:23:24.506Z,3.10
2023-05-10T10:25:57.537Z,3.90
2023-05-10T10:28:40.186Z,4.00
2023-05-10T10:31:26.537Z,3.70
2023-05-10T10:34:07.810Z,3.10
2023-05-10T10:36:47.313Z,3.60
2023-05-10T10:39:20.023Z,3.10
2023-05-10T10:44:37.533Z,3.20
2023-05-10T10:47:30.564Z,3.30
2023-05-10T10:50:10.478Z,3.20
2023-05-10T10:52:42.893Z,3.30
2023-05-10T10:57:52.432Z,2.90
2023-05-10T11:00:27.427Z,3.00
2023-05-10T11:03:01.597Z,3.20
2023-05-10T11:05:47.483Z,3.80
2023-05-10T11:08:22.699Z,3.40
2023-05-10T11:11:07.737Z,2.50
2023-05-10T11:13:42.090Z,3.00
2023-05-10T11:16:16.531Z,2.90
2023-05-10T11:19:06.019Z,3.10
2023-05-10T11:21:48.935Z,3.20
2023-05-10T11:24:22.733Z,3.00
2023-05-10T11:26:55.396Z,3.40
2023-05-10T11:32:01.205Z,3.40
2023-05-10T11:34:35.017Z,4.50
2023-05-10T11:37:06.822Z,3.60
2023-05-10T11:39:38.557Z,3.10
2023-05-10T11:42:12.125Z,3.70
2023-05-10T11:44:46.664Z,3.80
2023-05-10T11:47:18.500Z,3.40
2023-05-10T11:49:51.468Z,4.50
2023-05-10T11:52:23.593Z,3.30
2023-05-10T11:54:59.575Z,3.40
2023-05-10T11:57:32.266Z,3.30
2023-05-10T12:00:04.795Z,3.40
2023-05-10T12:02:40.222Z,2.80
2023-05-10T12:05:13.911Z,3.70
2023-05-10T12:07:45.770Z,3.80
2023-05-10T12:10:19.220Z,3.20
2023-05-10T12:12:53.980Z,3.80
2023-05-10T12:15:26.605Z,3.20
2023-05-10T12:18:00.895Z,3.60
2023-05-10T12:20:33.652Z,3.80
2023-05-10T12:23:06.662Z,3.50
2023-05-10T12:25:39.541Z,3.90
2023-05-10T12:28:12.361Z,2.80
2023-05-10T12:30:44.235Z,3.70
2023-05-10T12:33:17.668Z,3.30
2023-05-10T12:35:51.670Z,3.70
2023-05-10T12:38:36.523Z,3.50
2023-05-10T12:41:11.193Z,3.20
2023-05-10T12:43:44.186Z,3.50
2023-05-10T12:48:53.252Z,3.20
2023-05-10T12:51:29.816Z,3.90
2023-05-10T12:54:01.780Z,3.30
2023-05-10T12:56:33.703Z,4.50
2023-05-10T12:59:05.876Z,3.40
2023-05-10T13:01:37.806Z,4.40
2023-05-10T13:04:09.836Z,3.60
2023-05-10T13:06:41.772Z,3.40
2023-05-10T13:09:13.714Z,3.20
2023-05-10T13:11:46.304Z,3.50
2023-05-10T13:16:48.431Z,4.20
2023-05-10T13:19:20.637Z,3.50
2023-05-10T13:21:52.458Z,4.00
2023-05-10T13:24:24.917Z,3.20
2023-05-10T13:26:57.120Z,5.50
2023-05-10T13:29:29.272Z,4.30
2023-05-10T13:32:01.507Z,3.70
2023-05-10T13:34:33.697Z,4.10
2023-05-10T13:37:05.681Z,3.40
2023-05-10T13:39:38.489Z,3.50
2023-05-10T13:42:10.429Z,3.40
2023-05-10T13:44:42.380Z,3.50
2023-05-10T13:47:14.628Z,3.20
2023-05-10T13:49:46.657Z,3.30
2023-05-10T13:52:19.224Z,3.70
2023-05-10T13:54:52.954Z,3.90
2023-05-10T13:57:25.553Z,3.70
2023-05-10T13:59:58.560Z,3.60
2023-05-10T14:02:31.551Z,3.80
2023-05-10T14:05:04.990Z,3.60
2023-05-10T14:07:37.768Z,3.20
2023-05-10T14:10:12.091Z,3.90
2023-05-10T14:12:44.862Z,3.90
2023-05-10T14:15:18.309Z,3.10
2023-05-10T14:17:50.551Z,4.00
2023-05-10T14:20:22.550Z,4.40
2023-05-10T14:22:54.350Z,3.90
2023-05-10T14:25:26.606Z,4.80
2023-05-10T14:27:58.567Z,3.90
2023-05-10T14:30:30.250Z,4.20
2023-05-10T14:33:02.144Z,4.10
2023-05-10T14:35:34.082Z,4.00
2023-05-10T14:38:06.259Z,3.90
2023-05-10T14:40:38.259Z,3.80
2023-05-10T14:43:10.262Z,5.50
2023-05-10T14:45:42.377Z,4.10
2023-05-10T14:48:16.389Z,3.70
2023-05-10T14:50:50.617Z,4.40
2023-05-10T14:53:42.050Z,4.40
2023-05-10T14:56:14.861Z,4.30
2023-05-10T14:58:47.468Z,4.10
2023-05-10T15:03:52.089Z,4.00
2023-05-10T15:06:35.200Z,4.40
2023-05-10T15:09:08.553Z,4.00
2023-05-10T15:11:40.987Z,4.30
2023-05-10T15:14:13.629Z,4.30
2023-05-10T15:16:46.323Z,4.30
2023-05-10T15:19:18.413Z,4.60
2023-05-10T15:21:52.429Z,4.20
2023-05-10T15:24:24.226Z,4.20
2023-05-10T15:26:57.031Z,4.40
2023-05-10T15:29:28.917Z,4.70
2023-05-10T15:32:00.568Z,4.10
2023-05-10T15:34:33.750Z,4.40
2023-05-10T15:37:07.205Z,4.20
2023-05-10T15:39:39.365Z,4.50
2023-05-10T15:42:11.251Z,4.10
2023-05-10T15:44:44.798Z,4.60
2023-05-10T15:47:16.552Z,4.90
2023-05-10T15:49:48.253Z,4.00
2023-05-10T15:52:21.300Z,4.90
2023-05-10T15:54:53.155Z,4.40
2023-05-10T15:57:24.990Z,4.40
2023-05-10T15:59:57.971Z,4.20
2023-05-10T16:02:30.399Z,4.50
2023-05-10T16:05:02.257Z,4.70
2023-05-10T16:07:35.096Z,4.50
2023-05-10T16:10:08.510Z,4.40
2023-05-10T16:12:40.570Z,4.30
2023-05-10T16:15:13.432Z,4.20
2023-05-10T16:17:45.237Z,4.50
2023-05-10T16:20:17.040Z,4.00
2023-05-10T16:22:48.916Z,5.20
2023-05-10T16:25:20.682Z,4.20
2023-05-10T16:27:52.722Z,4.10
2023-05-10T16:30:27.196Z,4.30
2023-05-10T16:32:59.406Z,5.50
2023-05-10T16:35:31.653Z,3.90
2023-05-10T16:38:04.023Z,3.90
2023-05-10T16:43:06.250Z,4.00
2023-05-10T16:45:38.029Z,4.60
2023-05-10T16:48:10.551Z,4.10
2023-05-10T16:50:46.042Z,4.50
2023-05-10T16:53:18.106Z,4.10
2023-05-10T16:55:50.168Z,4.10
2023-05-10T17:00:52.928Z,4.00
2023-05-10T17:03:25.328Z,4.60
2023-05-10T17:05:57.019Z,4.30
2023-05-10T17:08:28.866Z,4.90
2023-05-10T17:11:04.179Z,4.00
2023-05-10T17:13:36.185Z,4.30
2023-05-10T17:16:08.459Z,4.50
2023-05-10T17:18:42.366Z,4.10
2023-05-10T17:21:14.224Z,4.50
2023-05-10T17:23:46.386Z,4.00
2023-05-10T17:26:18.158Z,4.20
2023-05-10T17:28:49.997Z,3.80
2023-05-10T17:31:21.863Z,4.80
2023-05-10T17:33:53.700Z,3.80
2023-05-10T17:36:25.818Z,4.00
2023-05-10T17:38:58.053Z,4.30
2023-05-10T17:41:30.041Z,4.80
2023-05-10T17:44:02.025Z,4.60
2023-05-10T17:46:33.817Z,4.00
2023-05-10T17:49:05.770Z,4.50
2023-05-10T17:51:37.681Z,4.70
2023-05-10T17:54:09.693Z,4.80
2023-05-10T17:56:41.939Z,4.90
2023-05-10T17:59:13.743Z,4.50
2023-05-10T18:01:45.575Z,5.80
2023-05-10T18:04:17.717Z,5.10
2023-05-10T18:06:49.623Z,4.70
2023-05-10T18:09:21.502Z,4.40
2023-05-10T18:11:53.615Z,4.70
2023-05-10T18:14:39.093Z,4.50
2023-05-10T18:17:14.746Z,5.10
2023-05-10T18:19:48.735Z,5.20
2023-05-10T18:22:23.216Z,4.30
2023-05-10T18:24:55.522Z,4.70
2023-05-10T18:27:27.296Z,5.00
2023-05-10T18:29:59.655Z,5.30
2023-05-10T18:32:31.658Z,4.80
2023-05-10T18:35:04.382Z,5.50
2023-05-10T18:37:38.432Z,5.40
2023-05-10T18:40:14.475Z,4.70
2023-05-10T18:42:46.772Z,5.10
2023-05-10T18:45:19.327Z,4.90
2023-05-10T18:47:51.355Z,4.60
2023-05-10T18:50:23.328Z,5.40
2023-05-10T18:52:56.093Z,5.20
2023-05-10T18:55:28.452Z,4.80
2023-05-10T18:58:00.425Z,5.30
2023-05-10T19:00:32.439Z,5.00
2023-05-10T19:03:05.036Z,4.90
2023-05-10T19:05:37.174Z,5.10
2023-05-10T19:08:09.001Z,4.70
2023-05-10T19:10:40.894Z,5.30
2023-05-10T19:13:12.689Z,5.20
2023-05-10T19:15:44.613Z,5.50
2023-05-10T19:18:16.426Z,3.90
2023-05-10T19:20:48.450Z,5.80
2023-05-10T19:23:20.320Z,5.40
2023-05-10T19:25:52.083Z,5.70
2023-05-10T19:28:23.797Z,6.40
2023-05-10T19:30:55.585Z,5.40
2023-05-10T19:33:27.383Z,6.40
2023-05-10T19:35:59.245Z,5.50
2023-05-10T19:38:31.108Z,5.80
2023-05-10T19:41:02.954Z,6.70
2023-05-10T19:43:36.942Z,4.90
2023-05-10T19:46:09.760Z,6.60
2023-05-10T19:48:42.118Z,6.40
2023-05-10T19:51:14.915Z,6.10
2023-05-10T19:53:46.961Z,6.10
2023-05-10T19:56:19.504Z,6.00
2023-05-10T19:58:51.170Z,5.50
2023-05-10T20:01:22.915Z,6.30
2023-05-10T20:03:55.274Z,6.20
2023-05-10T20:06:27.365Z,5.90
2023-05-10T20:08:59.406Z,5.90
2023-05-10T20:11:31.257Z,5.50
2023-05-10T20:14:03.353Z,5.20
2023-05-10T20:16:35.194Z,6.10
2023-05-10T20:19:07.323Z,3.70
2023-05-10T20:21:39.379Z,5.40
2023-05-10T20:24:11.906Z,5.80
2023-05-10T20:29:14.526Z,5.40
2023-05-10T20:31:46.866Z,5.50
2023-05-10T20:34:19.255Z,5.40
2023-05-10T20:36:52.651Z,5.20
2023-05-10T20:39:24.377Z,5.60
2023-05-10T20:41:56.579Z,4.80
2023-05-10T20:44:28.426Z,5.60
2023-05-10T20:47:00.991Z,5.70
2023-05-10T20:49:36.191Z,6.50
2023-05-10T20:52:09.024Z,6.60
2023-05-10T20:54:41.454Z,6.00
2023-05-10T20:57:13.787Z,5.90
2023-05-10T20:59:45.771Z,6.30
2023-05-10T21:02:17.728Z,6.40
2023-05-10T21:04:49.915Z,6.50
2023-05-10T21:07:22.163Z,6.10
2023-05-10T21:09:54.018Z,6.20
2023-05-10T21:12:25.866Z,7.00
2023-05-10T21:14:58.305Z,5.50
2023-05-10T21:17:30.272Z,6.20
2023-05-10T21:20:02.321Z,5.90
2023-05-10T21:22:34.803Z,5.50
2023-05-10T21:27:38.297Z,6.30
2023-05-10T21:30:12.003Z,5.80
2023-05-10T21:32:44.188Z,6.00
2023-05-10T21:35:16.995Z,5.90
2023-05-10T21:37:49.544Z,5.70
2023-05-10T21:42:53.867Z,5.40
2023-05-10T21:45:26.636Z,5.40
2023-05-10T21:47:58.765Z,5.90
2023-05-10T21:50:30.904Z,5.60
2023-05-10T21:53:03.660Z,6.60
2023-05-10T21:55:35.952Z,6.50
2023-05-10T21:58:07.734Z,6.70
2023-05-10T22:00:40.027Z,5.90
2023-05-10T22:03:12.116Z,6.40
2023-05-10T22:05:44.383Z,6.20
2023-05-10T22:08:16.556Z,6.00
2023-05-10T22:10:48.773Z,6.00
2023-05-10T22:13:20.886Z,6.50
2023-05-10T22:15:53.479Z,5.80
2023-05-10T22:18:25.837Z,6.20
2023-05-10T22:20:57.908Z,7.10
2023-05-10T22:23:30.159Z,6.30
2023-05-10T22:26:04.104Z,6.40
2023-05-10T22:28:36.392Z,6.70
2023-05-10T22:31:13.786Z,6.60
2023-05-10T22:33:45.867Z,7.50
2023-05-10T22:36:17.935Z,7.00
2023-05-10T22:38:50.014Z,7.10
2023-05-10T22:41:22.395Z,6.80
2023-05-10T22:46:25.847Z,6.70
2023-05-10T22:48:58.248Z,6.50
2023-05-10T22:51:30.233Z,6.70
2023-05-10T22:54:02.341Z,6.80
2023-05-10T22:56:34.839Z,7.90
2023-05-10T22:59:07.096Z,7.40
2023-05-10T23:01:39.215Z,8.20
2023-05-10T23:04:11.199Z,7.20
2023-05-10T23:06:43.231Z,7.20
2023-05-10T23:09:15.518Z,6.60
2023-05-10T23:11:47.331Z,7.30
2023-05-10T23:14:20.061Z,7.70
2023-05-10T23:16:51.978Z,7.70
2023-05-10T23:19:24.591Z,7.70
2023-05-10T23:21:56.250Z,7.10
2023-05-10T23:24:27.970Z,8.10
2023-05-10T23:26:59.664Z,6.80
2023-05-10T23:29:32.502Z,6.00
2023-05-10T23:32:04.297Z,6.50
2023-05-10T23:34:36.054Z,5.10
2023-05-10T23:37:07.750Z,6.50
2023-05-10T23:39:39.675Z,7.10
2023-05-10T23:42:11.481Z,7.00
2023-05-10T23:44:43.073Z,7.10
2023-05-10T23:47:14.779Z,7.10
2023-05-10T23:49:46.789Z,6.40
2023-05-10T23:52:18.455Z,7.20
2023-05-10T23:54:50.149Z,6.90
2023-05-10T23:57:21.883Z,6.90
2023-05-10T23:59:53.650Z,7.00
